Time;durP1;ratioP1;P1;durP2;ratioP2;P2;SDS_P1;SDS_P2;PMS_P1;PMS_P2;Temp;Humidity;BMP_temperature;BMP_pressure;BME280_temperature;BME280_humidity;BME280_pressure;Samples;Min_cycle;Max_cycle;Signal;HPM_P1;HPM_P2
2023/08/06 00:01:49;;;;;;;2.28;2.00;;;16.00;99.90;;;;;;4980676;28;20480;-84
2023/08/06 00:04:15;;;;;;;2.70;2.10;;;15.40;99.90;;;;;;4980494;28;20420;-84
2023/08/06 00:06:40;;;;;;;2.40;2.00;;;15.20;99.90;;;;;;4978864;28;20400;-83
2023/08/06 00:09:06;;;;;;;2.92;2.08;;;15.60;99.90;;;;;;4977242;28;20435;-85
2023/08/06 00:11:31;;;;;;;2.55;2.00;;;15.50;99.90;;;;;;4977794;28;20392;-84
2023/08/06 00:13:57;;;;;;;3.07;2.30;;;15.50;99.90;;;;;;4977955;28;20408;-84
2023/08/06 00:16:23;;;;;;;3.50;1.70;;;15.20;99.90;;;;;;4980515;28;20432;-84
2023/08/06 00:18:48;;;;;;;2.20;1.90;;;15.80;99.90;;;;;;4979900;28;20415;-84
2023/08/06 00:21:14;;;;;;;2.22;2.00;;;16.70;99.90;;;;;;4980086;28;20397;-85
2023/08/06 00:23:40;;;;;;;3.67;2.30;;;15.50;99.90;;;;;;4975698;28;20388;-84
2023/08/06 00:26:05;;;;;;;3.50;2.10;;;15.50;99.90;;;;;;4979184;28;20446;-83
2023/08/06 00:28:31;;;;;;;2.60;1.90;;;15.00;99.90;;;;;;4978672;28;20912;-83
2023/08/06 00:30:57;;;;;;;1.93;1.70;;;15.70;99.90;;;;;;4980609;28;20387;-83
2023/08/06 00:33:24;;;;;;;4.80;2.17;;;15.60;99.90;;;;;;4975468;28;20489;-82
2023/08/06 00:35:49;;;;;;;3.13;2.45;;;15.20;99.90;;;;;;4975852;28;20807;-84
2023/08/06 00:38:15;;;;;;;3.13;1.80;;;15.10;99.90;;;;;;4976133;28;20416;-83
2023/08/06 00:40:41;;;;;;;2.75;2.33;;;15.50;99.90;;;;;;4976263;28;20394;-83
2023/08/06 00:43:06;;;;;;;2.45;1.70;;;15.00;99.90;;;;;;4976208;28;20879;-82
2023/08/06 00:45:35;;;;;;;2.13;1.80;;;15.90;99.90;;;;;;4973722;28;20901;-83
2023/08/06 00:48:01;;;;;;;3.70;1.90;;;15.20;99.90;;;;;;4974628;28;20435;-82
2023/08/06 00:50:27;;;;;;;2.63;2.20;;;16.40;99.90;;;;;;4973836;28;20453;-82
2023/08/06 00:52:54;;;;;;;2.03;1.73;;;15.80;99.90;;;;;;4975592;28;20388;-82
2023/08/06 00:55:19;;;;;;;3.05;1.95;;;16.00;99.90;;;;;;4975828;28;20482;-82
2023/08/06 00:57:45;;;;;;;3.20;2.10;;;15.70;99.90;;;;;;4974496;28;20999;-82
2023/08/06 01:00:11;;;;;;;2.60;1.63;;;15.60;99.90;;;;;;4978398;28;20388;-80
2023/08/06 01:02:37;;;;;;;3.88;2.00;;;15.60;99.90;;;;;;4978324;28;20400;-82
2023/08/06 01:05:03;;;;;;;2.90;1.70;;;15.60;99.90;;;;;;4976306;28;20466;-82
2023/08/06 01:07:34;;;;;;;3.55;1.80;;;16.10;99.90;;;;;;4977499;28;20904;-82
2023/08/06 01:10:15;;;;;;;3.05;1.92;;;15.90;99.90;;;;;;4978717;28;20408;-84
2023/08/06 01:13:02;;;;;;;2.60;1.50;;;15.70;99.90;;;;;;4973115;28;20404;-82
2023/08/06 01:15:41;;;;;;;2.20;1.70;;;15.90;99.90;;;;;;4973440;28;20792;-82
2023/08/06 01:18:08;;;;;;;1.75;1.65;;;15.80;99.90;;;;;;4953959;28;20440;-82
2023/08/06 01:20:33;;;;;;;2.15;1.60;;;16.20;99.90;;;;;;4954236;28;20386;-82
2023/08/06 01:22:59;;;;;;;1.80;1.40;;;16.10;99.90;;;;;;4954699;28;20400;-81
2023/08/06 01:25:46;;;;;;;1.60;1.50;;;15.80;99.90;;;;;;4960521;28;20403;-82
2023/08/06 01:28:27;;;;;;;1.97;1.70;;;16.20;99.90;;;;;;4972115;28;20396;-82
2023/08/06 01:30:59;;;;;;;1.67;1.40;;;16.30;99.90;;;;;;4975220;28;20478;-83
2023/08/06 01:33:27;;;;;;;1.50;1.00;;;16.50;99.90;;;;;;4977706;28;20384;-82
2023/08/06 01:35:55;;;;;;;2.10;1.50;;;16.40;99.90;;;;;;4976400;28;20911;-81
2023/08/06 01:38:20;;;;;;;1.60;1.40;;;16.60;99.90;;;;;;4981229;28;20442;-82
2023/08/06 01:40:46;;;;;;;1.90;1.20;;;16.70;99.90;;;;;;4980085;28;21125;-82
2023/08/06 01:43:11;;;;;;;1.37;1.13;;;16.30;99.90;;;;;;4981102;28;20474;-82
2023/08/06 01:45:37;;;;;;;1.30;1.20;;;16.30;99.90;;;;;;4971643;28;20833;-81
2023/08/06 01:48:03;;;;;;;1.70;1.30;;;16.40;99.90;;;;;;4963927;28;20865;-82
2023/08/06 01:50:28;;;;;;;1.60;1.43;;;16.60;99.90;;;;;;4963680;29;20398;-83
2023/08/06 01:52:54;;;;;;;1.90;1.10;;;16.50;99.90;;;;;;4966865;29;20405;-82
2023/08/06 01:55:19;;;;;;;1.70;1.45;;;16.60;99.90;;;;;;4974931;28;20416;-82
2023/08/06 01:57:45;;;;;;;3.20;1.30;;;16.60;99.90;;;;;;4987533;28;20486;-80
2023/08/06 02:00:11;;;;;;;3.33;1.37;;;16.40;99.90;;;;;;4982520;28;20448;-81
2023/08/06 02:02:36;;;;;;;1.30;1.05;;;16.70;99.90;;;;;;4981134;28;20399;-82
2023/08/06 02:05:02;;;;;;;3.08;1.38;;;16.80;99.90;;;;;;4981986;28;20452;-82
2023/08/06 02:07:28;;;;;;;3.50;1.60;;;16.80;99.90;;;;;;4982734;28;20548;-83
2023/08/06 02:09:53;;;;;;;3.57;1.57;;;16.70;99.90;;;;;;4987072;28;20428;-82
2023/08/06 02:12:19;;;;;;;2.00;1.40;;;16.40;99.90;;;;;;4984635;28;20460;-83
2023/08/06 02:14:44;;;;;;;3.58;1.33;;;16.10;99.90;;;;;;4977658;28;20388;-82
2023/08/06 02:17:10;;;;;;;3.90;1.70;;;15.70;99.90;;;;;;4981922;28;20718;-83
2023/08/06 02:19:35;;;;;;;2.80;1.52;;;15.90;99.90;;;;;;4978716;28;20380;-83
2023/08/06 02:22:02;;;;;;;3.27;1.30;;;15.60;99.90;;;;;;4996876;28;20411;-83
2023/08/06 02:24:27;;;;;;;2.17;1.40;;;15.70;99.90;;;;;;4997857;28;20400;-82
2023/08/06 02:26:55;;;;;;;4.10;1.90;;;15.50;99.90;;;;;;4996971;28;20388;-81
2023/08/06 02:29:21;;;;;;;2.95;1.52;;;15.40;99.90;;;;;;4989414;28;20446;-82
2023/08/06 02:31:46;;;;;;;3.97;1.80;;;15.40;99.90;;;;;;4992438;28;20392;-81
2023/08/06 02:34:12;;;;;;;2.10;1.50;;;14.90;99.90;;;;;;4996173;28;20404;-82
2023/08/06 02:36:37;;;;;;;2.70;1.30;;;15.20;99.90;;;;;;4994130;28;20867;-81
2023/08/06 02:39:03;;;;;;;1.98;1.30;;;14.50;99.90;;;;;;4974502;28;20467;-83
2023/08/06 02:41:28;;;;;;;3.00;1.30;;;15.10;99.90;;;;;;4970604;28;20405;-82
2023/08/06 02:43:54;;;;;;;2.87;1.10;;;14.80;99.90;;;;;;4985953;28;20388;-81
2023/08/06 02:46:19;;;;;;;2.20;1.10;;;14.90;99.90;;;;;;4984716;28;20400;-81
2023/08/06 02:48:45;;;;;;;2.13;1.00;;;14.80;99.90;;;;;;4993132;28;20403;-81
2023/08/06 02:51:10;;;;;;;1.60;1.00;;;14.50;99.90;;;;;;4986390;28;20397;-82
2023/08/06 02:53:36;;;;;;;1.10;0.90;;;14.70;99.90;;;;;;4976178;28;20423;-82
2023/08/06 02:56:01;;;;;;;1.90;0.90;;;14.50;99.90;;;;;;4988800;28;20399;-83
2023/08/06 02:58:27;;;;;;;3.13;1.10;;;14.60;99.90;;;;;;4985922;28;20395;-82
2023/08/06 03:01:03;;;;;;;1.90;1.10;;;14.40;99.90;;;;;;4983601;28;20453;-83
2023/08/06 03:03:30;;;;;;;2.27;0.70;;;14.30;99.90;;;;;;4987181;28;20451;-82
2023/08/06 03:05:56;;;;;;;2.27;0.80;;;14.20;99.90;;;;;;4984975;28;20392;-83
2023/08/06 03:08:22;;;;;;;0.70;0.70;;;14.00;99.90;;;;;;4985707;28;20404;-82
2023/08/06 03:10:51;;;;;;;2.33;0.90;;;14.00;99.90;;;;;;4985845;28;20396;-83
2023/08/06 03:13:18;;;;;;;0.98;0.68;;;14.10;99.90;;;;;;4982937;28;20388;-83
2023/08/06 03:15:51;;;;;;;1.00;0.80;;;14.70;99.90;;;;;;4982213;28;20931;-83
2023/08/06 03:18:16;;;;;;;1.77;0.60;;;14.00;99.90;;;;;;4980817;28;20412;-82
2023/08/06 03:20:42;;;;;;;1.48;0.88;;;14.00;99.90;;;;;;4977439;28;20475;-83
2023/08/06 03:23:07;;;;;;;1.13;0.60;;;13.90;99.90;;;;;;5043394;23;20446;-82
2023/08/06 03:25:35;;;;;;;2.07;0.67;;;13.90;99.90;;;;;;4997324;28;20395;-81
2023/08/06 03:28:01;;;;;;;0.82;0.50;;;13.90;99.90;;;;;;5007413;28;20406;-81
2023/08/06 03:30:26;;;;;;;2.10;0.50;;;13.80;99.90;;;;;;5011939;28;20826;-81
2023/08/06 03:32:52;;;;;;;2.40;1.30;;;13.90;99.90;;;;;;5009030;28;20441;-83
2023/08/06 03:35:17;;;;;;;1.27;0.60;;;14.00;99.90;;;;;;4979949;28;20396;-82
2023/08/06 03:37:43;;;;;;;1.47;0.70;;;13.70;99.90;;;;;;4980627;28;20507;-82
2023/08/06 03:40:09;;;;;;;2.85;0.40;;;13.90;99.90;;;;;;4980875;28;20400;-82
2023/08/06 03:42:34;;;;;;;1.08;0.50;;;14.00;99.90;;;;;;4984863;28;20962;-81
2023/08/06 03:45:00;;;;;;;1.80;0.50;;;13.80;99.90;;;;;;4954576;28;20393;-82
2023/08/06 03:47:25;;;;;;;3.50;0.50;;;13.90;99.90;;;;;;4966058;29;20393;-82
2023/08/06 03:49:51;;;;;;;1.50;0.50;;;13.20;99.90;;;;;;4972379;28;20421;-82
2023/08/06 03:52:16;;;;;;;1.40;0.60;;;13.90;99.90;;;;;;4980770;28;20480;-82
2023/08/06 03:54:43;;;;;;;0.60;0.40;;;13.50;99.90;;;;;;4991516;28;20408;-82
2023/08/06 03:57:09;;;;;;;1.10;0.50;;;13.80;99.90;;;;;;4991650;28;20412;-81
2023/08/06 03:59:34;;;;;;;1.42;0.50;;;13.90;99.90;;;;;;4976021;28;20467;-81
2023/08/06 04:02:00;;;;;;;1.57;0.60;;;13.90;99.90;;;;;;4979097;28;20814;-82
2023/08/06 04:04:25;;;;;;;1.20;0.80;;;13.90;99.90;;;;;;4986446;28;20424;-81
2023/08/06 04:06:51;;;;;;;1.40;0.40;;;13.90;99.90;;;;;;4992282;28;20788;-81
2023/08/06 04:09:16;;;;;;;0.90;0.50;;;13.50;99.90;;;;;;4986494;28;20427;-81
2023/08/06 04:11:42;;;;;;;1.50;0.50;;;13.90;99.90;;;;;;4979382;28;20388;-80
2023/08/06 04:14:07;;;;;;;1.00;0.70;;;13.60;99.90;;;;;;4979116;28;20512;-81
2023/08/06 04:16:33;;;;;;;0.70;0.40;;;13.80;99.90;;;;;;4978359;28;20456;-80
2023/08/06 04:18:58;;;;;;;2.70;0.70;;;13.90;99.90;;;;;;4978533;28;20393;-80
2023/08/06 04:21:24;;;;;;;0.80;0.40;;;13.90;99.90;;;;;;4986679;28;20384;-80
2023/08/06 04:23:50;;;;;;;0.70;0.50;;;13.90;99.90;;;;;;4981428;28;20479;-82
2023/08/06 04:26:15;;;;;;;0.73;0.50;;;13.70;99.90;;;;;;4978273;28;20400;-81
2023/08/06 04:28:41;;;;;;;1.00;0.60;;;14.00;99.90;;;;;;4977064;28;20404;-82
2023/08/06 04:31:06;;;;;;;2.67;0.50;;;13.90;99.90;;;;;;4978228;28;20400;-83
2023/08/06 04:33:32;;;;;;;2.80;0.80;;;14.00;99.90;;;;;;4978140;28;20873;-81
2023/08/06 04:35:57;;;;;;;1.80;1.00;;;13.90;99.90;;;;;;4979411;28;20407;-82
2023/08/06 04:38:24;;;;;;;2.20;0.80;;;13.60;99.90;;;;;;4978898;28;20400;-83
2023/08/06 04:40:50;;;;;;;3.40;0.90;;;13.90;99.90;;;;;;4975141;28;20971;-82
2023/08/06 04:43:15;;;;;;;4.80;1.30;;;13.90;99.90;;;;;;4975483;28;20456;-82
2023/08/06 04:45:50;;;;;;;4.20;1.10;;;14.00;99.90;;;;;;4978708;28;20487;-82
2023/08/06 04:48:16;;;;;;;2.33;1.00;;;13.90;99.90;;;;;;4978426;28;20427;-83
2023/08/06 04:50:49;;;;;;;4.55;1.30;;;13.90;99.90;;;;;;4979135;28;20955;-82
2023/08/06 04:53:15;;;;;;;3.90;1.20;;;13.80;99.90;;;;;;4979182;28;20734;-83
2023/08/06 04:55:41;;;;;;;5.38;1.40;;;13.70;99.90;;;;;;4978143;28;20403;-85
2023/08/06 04:58:08;;;;;;;5.22;1.50;;;13.30;99.90;;;;;;4979235;28;20412;-84
2023/08/06 05:00:34;;;;;;;5.25;1.80;;;13.40;99.90;;;;;;4981397;28;20392;-82
2023/08/06 05:03:00;;;;;;;2.80;1.30;;;13.30;99.90;;;;;;4979390;28;20380;-84
2023/08/06 05:05:26;;;;;;;3.42;1.70;;;13.00;99.90;;;;;;4976008;28;20405;-84
2023/08/06 05:07:53;;;;;;;3.80;1.40;;;13.00;99.90;;;;;;4975484;28;20429;-85
2023/08/06 05:10:19;;;;;;;4.78;1.90;;;13.00;99.90;;;;;;4980949;28;20410;-85
2023/08/06 05:12:44;;;;;;;7.30;2.05;;;12.60;99.90;;;;;;4980435;28;20396;-85
2023/08/06 05:15:10;;;;;;;5.10;1.70;;;12.60;99.90;;;;;;4979682;28;20427;-82
2023/08/06 05:17:35;;;;;;;5.30;2.00;;;12.70;99.90;;;;;;4981219;28;20850;-84
2023/08/06 05:20:01;;;;;;;4.88;1.58;;;12.80;99.90;;;;;;4982239;28;20411;-85
2023/08/06 05:22:26;;;;;;;6.13;1.80;;;12.90;99.90;;;;;;4979983;28;20479;-84
2023/08/06 05:24:52;;;;;;;4.97;1.37;;;12.90;99.90;;;;;;4986345;28;20437;-83
2023/08/06 05:27:20;;;;;;;5.07;1.80;;;12.80;99.90;;;;;;4987865;28;20466;-84
2023/08/06 05:29:47;;;;;;;5.90;2.00;;;13.40;99.90;;;;;;4994497;28;20483;-83
2023/08/06 05:32:13;;;;;;;3.92;1.80;;;12.80;99.90;;;;;;4989531;28;20540;-83
2023/08/06 05:34:38;;;;;;;2.60;1.20;;;12.80;99.90;;;;;;4985460;28;20432;-85
2023/08/06 05:37:04;;;;;;;3.73;1.60;;;12.80;99.90;;;;;;4997701;28;20431;-83
2023/08/06 05:39:30;;;;;;;5.75;1.67;;;12.80;99.90;;;;;;4994204;28;20439;-83
2023/08/06 05:41:56;;;;;;;2.67;1.50;;;12.80;99.90;;;;;;4993220;28;20423;-84
2023/08/06 05:44:23;;;;;;;2.33;1.40;;;12.80;99.90;;;;;;4992104;28;20384;-83
2023/08/06 05:46:49;;;;;;;3.17;1.15;;;12.80;99.90;;;;;;4987360;28;20426;-86
2023/08/06 05:49:15;;;;;;;2.75;1.38;;;12.50;99.90;;;;;;4988238;28;20392;-85
2023/08/06 05:51:40;;;;;;;5.38;1.60;;;12.50;99.90;;;;;;4989281;28;20577;-83
2023/08/06 05:54:06;;;;;;;5.72;1.83;;;12.70;99.90;;;;;;4988833;28;20393;-84
2023/08/06 05:56:31;;;;;;;2.17;1.30;;;12.40;99.90;;;;;;4987471;28;20412;-84
2023/08/06 05:58:57;;;;;;;3.87;1.83;;;12.70;99.90;;;;;;4987526;28;20392;-84
2023/08/06 06:01:23;;;;;;;2.97;1.80;;;12.80;99.90;;;;;;4987819;28;20435;-83
2023/08/06 06:03:48;;;;;;;2.92;1.35;;;12.70;99.90;;;;;;4990943;28;20419;-84
2023/08/06 06:06:14;;;;;;;1.75;1.10;;;12.80;99.90;;;;;;4990316;28;20408;-85
2023/08/06 06:08:40;;;;;;;2.90;1.60;;;12.70;99.90;;;;;;4998358;28;20471;-84
2023/08/06 06:11:05;;;;;;;3.25;0.80;;;12.80;99.90;;;;;;4999104;28;20426;-83
2023/08/06 06:13:31;;;;;;;4.30;1.30;;;12.90;99.90;;;;;;4997563;28;20424;-84
2023/08/06 06:15:56;;;;;;;2.70;0.90;;;12.90;99.90;;;;;;4990151;28;20492;-85
2023/08/06 06:18:22;;;;;;;2.88;1.40;;;12.10;99.90;;;;;;4990323;28;20465;-85
2023/08/06 06:20:48;;;;;;;3.40;1.30;;;13.10;99.90;;;;;;4990130;28;20409;-82
2023/08/06 06:23:14;;;;;;;3.90;1.20;;;13.10;99.90;;;;;;4986799;28;20407;-84
2023/08/06 06:25:47;;;;;;;4.40;1.60;;;13.90;99.90;;;;;;4987354;28;20424;-84
2023/08/06 06:28:13;;;;;;;4.78;1.60;;;13.80;99.90;;;;;;4988217;28;20431;-84
2023/08/06 06:30:38;;;;;;;4.00;1.50;;;13.00;99.90;;;;;;4990204;28;20408;-85
2023/08/06 06:33:04;;;;;;;3.20;0.80;;;12.80;99.90;;;;;;4988170;28;20399;-83
2023/08/06 06:35:29;;;;;;;1.10;1.00;;;13.10;99.90;;;;;;4989449;28;20403;-85
2023/08/06 06:37:55;;;;;;;3.13;0.93;;;12.40;99.90;;;;;;4986059;28;20479;-86
2023/08/06 06:40:20;;;;;;;1.40;0.90;;;12.90;99.90;;;;;;4985552;28;20408;-84
2023/08/06 06:42:46;;;;;;;2.50;0.90;;;12.90;99.90;;;;;;4985671;28;20392;-86
2023/08/06 06:45:12;;;;;;;2.87;0.97;;;12.90;99.90;;;;;;4984812;28;20407;-86
2023/08/06 06:47:37;;;;;;;3.58;1.02;;;13.00;99.90;;;;;;4986681;28;20939;-85
2023/08/06 06:50:03;;;;;;;2.33;1.00;;;12.10;99.90;;;;;;4982685;28;20400;-87
2023/08/06 06:52:29;;;;;;;1.80;0.90;;;12.90;99.90;;;;;;4984674;28;20398;-85
2023/08/06 06:54:55;;;;;;;2.50;1.00;;;12.90;99.90;;;;;;4983135;28;20392;-87
2023/08/06 06:57:20;;;;;;;2.10;0.70;;;12.00;99.90;;;;;;4987748;28;20547;-86
2023/08/06 06:59:46;;;;;;;2.80;0.90;;;12.70;99.90;;;;;;4985462;28;20479;-82
2023/08/06 07:02:11;;;;;;;1.48;0.88;;;12.80;99.90;;;;;;4988581;28;20824;-84
2023/08/06 07:04:37;;;;;;;2.80;0.80;;;12.50;99.90;;;;;;4989254;28;20395;-83
2023/08/06 07:07:03;;;;;;;2.20;1.00;;;12.80;99.90;;;;;;4987918;28;20404;-85
2023/08/06 07:09:28;;;;;;;1.40;0.70;;;12.80;99.90;;;;;;4987515;28;20431;-84
2023/08/06 07:11:54;;;;;;;2.90;0.70;;;12.30;99.90;;;;;;4986684;28;20419;-85
2023/08/06 07:14:19;;;;;;;1.33;0.60;;;12.90;99.90;;;;;;4992288;28;20404;-85
2023/08/06 07:16:45;;;;;;;1.83;0.80;;;12.30;99.90;;;;;;4979469;28;20408;-83
2023/08/06 07:19:10;;;;;;;2.20;0.60;;;12.90;99.90;;;;;;4982454;28;20404;-85
2023/08/06 07:21:36;;;;;;;1.30;0.50;;;12.90;99.90;;;;;;4988970;28;20444;-84
2023/08/06 07:24:01;;;;;;;1.80;0.80;;;13.00;99.90;;;;;;4996371;28;20388;-83
2023/08/06 07:26:27;;;;;;;0.98;0.50;;;13.00;99.90;;;;;;4996297;28;20388;-84
2023/08/06 07:28:53;;;;;;;2.00;0.80;;;12.90;99.90;;;;;;4990127;28;20407;-84
2023/08/06 07:31:18;;;;;;;1.80;0.70;;;13.00;99.90;;;;;;4990370;28;20392;-83
2023/08/06 07:33:44;;;;;;;1.23;0.50;;;13.10;99.90;;;;;;4995252;28;20411;-81
2023/08/06 07:36:11;;;;;;;0.80;0.40;;;13.10;99.90;;;;;;4983439;28;20400;-84
2023/08/06 07:38:37;;;;;;;1.10;0.50;;;13.10;99.90;;;;;;4981471;28;20503;-84
2023/08/06 07:41:03;;;;;;;0.90;0.50;;;13.10;99.90;;;;;;4984659;28;20399;-84
2023/08/06 07:43:29;;;;;;;0.60;0.40;;;12.80;99.90;;;;;;4981783;28;20537;-83
2023/08/06 07:45:57;;;;;;;1.00;0.50;;;13.20;99.90;;;;;;4988563;28;20415;-83
2023/08/06 07:48:23;;;;;;;1.70;0.40;;;13.40;99.90;;;;;;4988540;28;20403;-83
2023/08/06 07:50:55;;;;;;;1.50;0.50;;;13.10;99.90;;;;;;4986799;28;20396;-82
2023/08/06 07:53:22;;;;;;;0.60;0.45;;;13.50;99.90;;;;;;4968311;28;20984;-83
2023/08/06 07:55:53;;;;;;;1.13;0.50;;;13.50;99.90;;;;;;4966268;28;20392;-84
2023/08/06 07:58:23;;;;;;;0.50;0.30;;;13.60;99.90;;;;;;4981990;28;20412;-83
2023/08/06 08:00:48;;;;;;;0.40;0.40;;;13.60;99.90;;;;;;4987993;28;20412;-81
2023/08/06 08:03:15;;;;;;;0.80;0.40;;;13.60;99.90;;;;;;4990294;28;20392;-85
2023/08/06 08:05:42;;;;;;;0.47;0.37;;;13.70;99.90;;;;;;4989288;28;20388;-83
2023/08/06 08:08:07;;;;;;;1.30;0.47;;;13.60;99.90;;;;;;4984930;28;20403;-81
2023/08/06 08:10:34;;;;;;;0.70;0.50;;;13.70;99.90;;;;;;4984923;28;20492;-84
2023/08/06 08:13:02;;;;;;;1.30;0.40;;;13.70;99.90;;;;;;4985692;28;20404;-83
2023/08/06 08:15:29;;;;;;;0.50;0.40;;;13.60;99.90;;;;;;4987465;28;20408;-81
2023/08/06 08:17:55;;;;;;;1.17;0.68;;;13.50;99.90;;;;;;4983329;28;20404;-83
2023/08/06 08:20:20;;;;;;;0.70;0.40;;;13.50;99.90;;;;;;4984500;28;20388;-83
2023/08/06 08:22:46;;;;;;;0.57;0.30;;;13.40;99.90;;;;;;4987319;28;20471;-84
2023/08/06 08:25:12;;;;;;;0.60;0.40;;;13.40;99.90;;;;;;4984528;28;20392;-82
2023/08/06 08:27:37;;;;;;;1.55;0.40;;;13.40;99.90;;;;;;4978277;28;20416;-83
2023/08/06 08:30:03;;;;;;;0.60;0.40;;;12.90;99.90;;;;;;4979291;28;20392;-84
2023/08/06 08:32:28;;;;;;;0.70;0.40;;;13.40;99.90;;;;;;4983801;28;20475;-82
2023/08/06 08:34:54;;;;;;;0.70;0.50;;;13.40;99.90;;;;;;4988654;28;20404;-82
2023/08/06 08:37:20;;;;;;;0.93;0.40;;;13.20;99.90;;;;;;4985854;28;20415;-85
2023/08/06 08:39:45;;;;;;;0.60;0.40;;;13.30;99.90;;;;;;4984765;28;20475;-84
2023/08/06 08:42:11;;;;;;;2.47;0.57;;;13.00;99.90;;;;;;4981345;28;20507;-84
2023/08/06 08:44:39;;;;;;;1.07;0.40;;;12.80;99.90;;;;;;4986003;28;20389;-83
2023/08/06 08:47:06;;;;;;;0.70;0.60;;;13.10;99.90;;;;;;4986457;28;20392;-82
2023/08/06 08:49:32;;;;;;;0.90;0.60;;;13.00;99.90;;;;;;4987514;28;20424;-83
2023/08/06 08:51:59;;;;;;;0.80;0.60;;;13.00;99.90;;;;;;4981116;28;20414;-84
2023/08/06 08:54:26;;;;;;;0.70;0.50;;;12.50;99.90;;;;;;4983809;28;20399;-85
2023/08/06 08:56:51;;;;;;;1.20;0.60;;;13.30;99.90;;;;;;4981827;28;20769;-83
2023/08/06 08:59:17;;;;;;;0.50;0.40;;;13.30;99.90;;;;;;4979886;28;20423;-85
2023/08/06 09:01:43;;;;;;;0.87;0.50;;;13.40;99.90;;;;;;4976473;28;20475;-83
2023/08/06 09:04:11;;;;;;;0.63;0.50;;;13.40;99.90;;;;;;4981913;28;20384;-85
2023/08/06 09:06:39;;;;;;;1.55;0.50;;;13.30;99.90;;;;;;4980313;28;20408;-86
2023/08/06 09:09:20;;;;;;;0.80;0.60;;;13.10;99.90;;;;;;4986071;28;20887;-81
2023/08/06 09:11:49;;;;;;;0.70;0.50;;;13.50;99.90;;;;;;4989289;28;20881;-85
2023/08/06 09:14:14;;;;;;;1.90;0.40;;;14.30;99.90;;;;;;4986520;28;20392;-85
2023/08/06 09:16:40;;;;;;;0.85;0.40;;;12.60;99.90;;;;;;4988612;28;20463;-85
2023/08/06 09:19:15;;;;;;;0.68;0.40;;;13.50;99.90;;;;;;4988608;28;20498;-86
2023/08/06 09:21:41;;;;;;;1.20;0.50;;;13.60;99.90;;;;;;4997604;23;20412;-82
2023/08/06 09:24:11;;;;;;;0.50;0.30;;;13.60;99.90;;;;;;5008240;28;20631;-83
2023/08/06 09:26:38;;;;;;;0.50;0.40;;;13.60;99.90;;;;;;4986872;28;20385;-82
2023/08/06 09:29:06;;;;;;;0.60;0.40;;;13.60;99.90;;;;;;5006103;28;20397;-82
2023/08/06 09:31:42;;;;;;;0.77;0.50;;;13.10;99.90;;;;;;4995464;28;20399;-82
2023/08/06 09:34:22;;;;;;;1.00;0.50;;;13.60;99.90;;;;;;4995882;28;20987;-83
2023/08/06 09:36:54;;;;;;;1.10;0.55;;;13.70;99.90;;;;;;5000605;28;20907;-82
2023/08/06 09:39:22;;;;;;;0.47;0.40;;;13.70;99.90;;;;;;4986541;28;20389;-83
2023/08/06 09:41:48;;;;;;;0.90;0.50;;;13.80;99.90;;;;;;4984584;28;20422;-82
2023/08/06 09:44:19;;;;;;;0.80;0.50;;;13.80;99.90;;;;;;4968281;28;20392;-82
2023/08/06 09:46:49;;;;;;;0.80;0.40;;;14.50;99.90;;;;;;4983916;28;20726;-83
2023/08/06 09:49:19;;;;;;;0.55;0.50;;;14.40;99.90;;;;;;4966232;28;20404;-82
2023/08/06 09:51:50;;;;;;;2.90;0.60;;;13.60;99.90;;;;;;4946858;29;20407;-83
2023/08/06 09:54:17;;;;;;;0.70;0.50;;;13.90;99.90;;;;;;4965842;28;20430;-84
2023/08/06 09:56:43;;;;;;;0.60;0.30;;;13.90;99.90;;;;;;4971945;29;20406;-82
2023/08/06 09:59:08;;;;;;;0.70;0.40;;;13.90;99.90;;;;;;4970880;28;20460;-83
2023/08/06 10:01:35;;;;;;;1.10;0.40;;;13.50;99.90;;;;;;5004619;28;20450;-82
2023/08/06 10:04:07;;;;;;;1.50;0.40;;;13.50;99.90;;;;;;5004113;28;20431;-81
2023/08/06 10:06:37;;;;;;;0.88;0.50;;;14.00;99.90;;;;;;4981301;28;20419;-81
2023/08/06 10:09:07;;;;;;;0.80;0.60;;;13.90;99.90;;;;;;4996135;28;20388;-81
2023/08/06 10:11:33;;;;;;;0.60;0.50;;;14.00;99.90;;;;;;5012592;28;20388;-83
2023/08/06 10:14:05;;;;;;;0.40;0.30;;;15.60;99.90;;;;;;4992707;28;20398;-83
2023/08/06 10:16:31;;;;;;;0.50;0.35;;;13.90;99.90;;;;;;5008971;28;20415;-84
2023/08/06 10:18:57;;;;;;;1.23;0.40;;;13.40;99.90;;;;;;5013421;28;20386;-81
2023/08/06 10:21:27;;;;;;;0.80;0.50;;;14.10;99.90;;;;;;4998373;28;20432;-82
2023/08/06 10:23:57;;;;;;;0.60;0.40;;;14.20;99.90;;;;;;4980343;28;20384;-80
2023/08/06 10:26:29;;;;;;;1.25;0.52;;;14.30;99.90;;;;;;4995107;28;20432;-82
2023/08/06 10:28:55;;;;;;;0.70;0.40;;;14.30;99.90;;;;;;4992053;28;20403;-82
2023/08/06 10:31:59;;;;;;;0.90;0.40;;;14.20;99.90;;;;;;4995676;28;20410;-81
2023/08/06 10:34:25;;;;;;;0.50;0.50;;;14.20;99.90;;;;;;4992308;28;20399;-81
2023/08/06 10:36:54;;;;;;;1.00;0.50;;;13.70;99.90;;;;;;4991691;28;20832;-82
2023/08/06 10:39:20;;;;;;;0.90;0.40;;;14.10;99.90;;;;;;4972938;28;20396;-82
2023/08/06 10:41:46;;;;;;;2.70;0.60;;;14.00;99.90;;;;;;5004684;28;20391;-82
2023/08/06 10:44:11;;;;;;;0.60;0.50;;;14.10;99.90;;;;;;5002805;28;20471;-81
2023/08/06 10:46:37;;;;;;;0.80;0.40;;;14.10;99.90;;;;;;4990187;28;20397;-83
2023/08/06 10:49:04;;;;;;;0.50;0.40;;;16.70;99.90;;;;;;4988779;28;20400;-83
2023/08/06 10:51:30;;;;;;;0.73;0.55;;;14.20;99.90;;;;;;4990429;28;20403;-83
2023/08/06 10:53:57;;;;;;;1.00;0.60;;;14.20;99.90;;;;;;4994896;28;20494;-84
2023/08/06 10:56:25;;;;;;;1.00;0.40;;;13.90;99.90;;;;;;5004929;28;20414;-85
2023/08/06 10:58:54;;;;;;;0.57;0.40;;;14.60;99.90;;;;;;5005248;28;20383;-82
2023/08/06 11:01:21;;;;;;;1.10;0.55;;;13.80;99.90;;;;;;5003371;28;20383;-85
2023/08/06 11:03:49;;;;;;;1.38;0.60;;;12.90;99.90;;;;;;4987485;28;20398;-82
2023/08/06 11:06:22;;;;;;;0.60;0.50;;;14.80;99.90;;;;;;5008926;28;20484;-84
2023/08/06 11:08:49;;;;;;;1.30;0.40;;;15.20;99.90;;;;;;5010804;28;20382;-83
2023/08/06 11:11:16;;;;;;;0.73;0.55;;;13.60;99.90;;;;;;5001015;28;20441;-85
2023/08/06 11:13:46;;;;;;;0.52;0.40;;;13.40;99.90;;;;;;4993585;28;20876;-86
2023/08/06 11:16:14;;;;;;;2.08;1.00;;;13.60;99.90;;;;;;4961258;28;20396;-84
2023/08/06 11:18:41;;;;;;;2.50;0.63;;;13.50;99.90;;;;;;4977671;28;20492;-85
2023/08/06 11:21:07;;;;;;;0.68;0.60;;;13.50;99.90;;;;;;4980113;28;20410;-83
2023/08/06 11:23:34;;;;;;;0.60;0.60;;;13.40;99.90;;;;;;4976342;28;20399;-84
2023/08/06 11:26:00;;;;;;;1.20;0.80;;;13.30;99.90;;;;;;4997603;28;20472;-85
2023/08/06 11:28:26;;;;;;;1.50;0.60;;;13.60;99.90;;;;;;4978658;28;20479;-85
2023/08/06 11:30:52;;;;;;;1.10;0.70;;;13.50;99.90;;;;;;4964176;28;20435;-85
2023/08/06 11:33:27;;;;;;;0.52;0.50;;;13.60;99.90;;;;;;4982696;28;20388;-85
2023/08/06 11:35:56;;;;;;;1.30;0.90;;;13.50;99.90;;;;;;4966721;28;20417;-85
2023/08/06 11:38:24;;;;;;;0.70;0.50;;;13.70;99.90;;;;;;4982270;28;20467;-84
2023/08/06 11:40:50;;;;;;;0.60;0.50;;;13.80;99.90;;;;;;4983585;28;20399;-84
2023/08/06 11:43:19;;;;;;;1.00;0.50;;;13.80;99.90;;;;;;4982008;28;20785;-85
2023/08/06 11:45:44;;;;;;;0.70;0.50;;;13.90;99.90;;;;;;4992058;28;20395;-86
2023/08/06 11:48:10;;;;;;;1.50;0.50;;;13.80;99.90;;;;;;4997487;28;20764;-86
2023/08/06 11:50:39;;;;;;;0.80;0.40;;;14.00;99.90;;;;;;4971401;28;20910;-85
2023/08/06 11:53:05;;;;;;;1.63;0.30;;;13.00;99.90;;;;;;5000859;28;20403;-85
2023/08/06 11:55:31;;;;;;;0.90;0.30;;;15.50;99.90;;;;;;4984793;28;20395;-85
2023/08/06 11:57:56;;;;;;;0.40;0.30;;;14.10;99.90;;;;;;5000011;28;20422;-85
2023/08/06 12:00:25;;;;;;;0.50;0.50;;;14.10;99.90;;;;;;4964453;28;20409;-85
2023/08/06 12:02:52;;;;;;;0.60;0.43;;;14.00;99.90;;;;;;4994629;28;20399;-85
2023/08/06 12:05:23;;;;;;;0.50;0.30;;;14.30;99.90;;;;;;4980570;28;20399;-87
2023/08/06 12:07:56;;;;;;;0.82;0.40;;;15.30;99.90;;;;;;4985867;28;20388;-83
2023/08/06 12:10:24;;;;;;;0.60;0.40;;;14.10;99.90;;;;;;4984610;28;20711;-83
2023/08/06 12:12:50;;;;;;;0.50;0.40;;;14.00;99.90;;;;;;4997717;28;20430;-83
2023/08/06 12:15:16;;;;;;;0.65;0.40;;;13.90;99.90;;;;;;4974030;28;20782;-83
2023/08/06 12:17:42;;;;;;;2.30;0.50;;;14.00;99.90;;;;;;5000972;28;20406;-84
2023/08/06 12:20:09;;;;;;;0.80;0.60;;;14.00;99.90;;;;;;5002372;28;20426;-82
2023/08/06 12:22:35;;;;;;;0.50;0.50;;;14.00;99.90;;;;;;5001481;28;20390;-84
2023/08/06 12:25:08;;;;;;;0.60;0.40;;;14.10;99.90;;;;;;4982286;28;20391;-84
2023/08/06 12:27:38;;;;;;;2.30;0.60;;;14.20;99.90;;;;;;4963727;28;20451;-82
2023/08/06 12:30:05;;;;;;;1.30;0.50;;;14.30;99.90;;;;;;4996924;28;20403;-83
2023/08/06 12:32:31;;;;;;;1.02;0.45;;;14.40;99.90;;;;;;5008063;28;20394;-82
2023/08/06 12:34:57;;;;;;;0.70;0.60;;;14.50;99.90;;;;;;4991521;28;20391;-83
2023/08/06 12:37:24;;;;;;;1.30;0.50;;;14.60;99.90;;;;;;5010057;28;20442;-84
2023/08/06 12:39:50;;;;;;;0.60;0.40;;;14.70;99.90;;;;;;4992517;28;20475;-83
2023/08/06 12:42:15;;;;;;;1.30;0.60;;;15.90;99.90;;;;;;5002594;28;20399;-84
2023/08/06 12:44:41;;;;;;;0.90;0.60;;;16.30;99.90;;;;;;5010048;28;20401;-83
2023/08/06 12:47:09;;;;;;;0.63;0.50;;;14.60;99.90;;;;;;5010414;28;20398;-83